createdAt,value
2023-04-06T00:00:10.599Z,8.27
2023-04-06T00:02:40.707Z,8.20
2023-04-06T00:05:09.656Z,8.19
2023-04-06T00:07:38.156Z,8.16
2023-04-06T00:10:07.760Z,8.23
2023-04-06T00:12:36.323Z,8.29
2023-04-06T00:15:06.593Z,8.09
2023-04-06T00:17:35.110Z,8.14
2023-04-06T00:20:05.311Z,8.22
2023-04-06T00:22:33.647Z,8.23
2023-04-06T00:25:02.064Z,8.17
2023-04-06T00:27:30.676Z,8.12
2023-04-06T00:29:58.977Z,8.15
2023-04-06T00:32:27.308Z,8.17
2023-04-06T00:34:55.756Z,8.03
2023-04-06T00:37:25.464Z,8.02
2023-04-06T00:39:53.815Z,8.03
2023-04-06T00:42:26.765Z,8.00
2023-04-06T00:44:55.474Z,7.93
2023-04-06T00:47:26.146Z,7.92
2023-04-06T00:49:55.454Z,7.91
2023-04-06T00:52:25.166Z,7.93
2023-04-06T00:54:55.143Z,7.88
2023-04-06T00:57:24.605Z,7.84
2023-04-06T00:59:58.431Z,7.78
2023-04-06T01:02:27.397Z,7.75
2023-04-06T01:04:56.808Z,7.69
2023-04-06T01:07:35.581Z,7.69
2023-04-06T01:10:12.218Z,7.63
2023-04-06T01:12:41.050Z,7.60
2023-04-06T01:15:19.346Z,7.68
2023-04-06T01:17:52.334Z,7.57
2023-04-06T01:20:21.274Z,7.49
2023-04-06T01:22:51.232Z,7.57
2023-04-06T01:25:20.875Z,7.50
2023-04-06T01:28:09.537Z,7.53
2023-04-06T01:30:57.945Z,7.57
2023-04-06T01:33:41.612Z,7.54
2023-04-06T01:36:13.621Z,7.59
2023-04-06T01:38:43.592Z,7.53
2023-04-06T01:41:12.460Z,7.48
2023-04-06T01:43:50.524Z,7.54
2023-04-06T01:46:19.057Z,7.55
2023-04-06T01:48:47.406Z,7.58
2023-04-06T01:51:36.093Z,7.63
2023-04-06T01:54:09.028Z,7.61
2023-04-06T01:56:57.617Z,7.45
2023-04-06T01:59:52.382Z,7.50
2023-04-06T02:02:30.285Z,7.53
2023-04-06T02:05:06.464Z,7.46
2023-04-06T02:07:35.210Z,7.39
2023-04-06T02:10:05.915Z,7.41
2023-04-06T02:12:39.189Z,7.47
2023-04-06T02:15:11.803Z,7.32
2023-04-06T02:17:40.285Z,7.29
2023-04-06T02:20:09.606Z,7.33
2023-04-06T02:22:38.008Z,7.31
2023-04-06T02:25:08.715Z,7.31
2023-04-06T02:27:37.261Z,7.33
2023-04-06T02:30:06.454Z,7.31
2023-04-06T02:32:34.807Z,7.34
2023-04-06T02:35:03.837Z,7.27
2023-04-06T02:37:33.183Z,7.29
2023-04-06T02:40:01.546Z,7.24
2023-04-06T02:42:33.905Z,7.19
2023-04-06T02:45:02.286Z,7.22
2023-04-06T02:47:35.556Z,7.29
2023-04-06T02:50:04.058Z,7.20
2023-04-06T02:52:34.300Z,7.19
2023-04-06T02:55:02.895Z,7.08
2023-04-06T02:57:34.409Z,7.13
2023-04-06T03:00:03.236Z,7.26
2023-04-06T03:02:39.904Z,7.22
2023-04-06T03:05:12.896Z,7.18
2023-04-06T03:07:44.768Z,7.28
2023-04-06T03:10:21.020Z,7.09
2023-04-06T03:12:51.885Z,7.18
2023-04-06T03:15:26.327Z,7.24
2023-04-06T03:18:02.845Z,7.13
2023-04-06T03:20:42.440Z,7.18
2023-04-06T03:23:11.946Z,7.25
2023-04-06T03:25:43.811Z,7.26
2023-04-06T03:28:18.092Z,7.24
2023-04-06T03:30:59.402Z,7.25
2023-04-06T03:34:00.167Z,7.25
2023-04-06T03:36:33.001Z,7.19
2023-04-06T03:39:02.340Z,7.29
2023-04-06T03:41:33.537Z,7.26
2023-04-06T03:44:08.982Z,7.31
2023-04-06T03:46:37.454Z,7.34
2023-04-06T03:49:06.234Z,7.29
2023-04-06T03:51:34.784Z,7.30
2023-04-06T03:54:03.568Z,7.23
2023-04-06T03:56:31.963Z,7.25
2023-04-06T03:59:00.442Z,7.32
2023-04-06T04:01:30.505Z,7.30
2023-04-06T04:03:59.071Z,7.31
2023-04-06T04:06:27.490Z,7.27
2023-04-06T04:08:55.829Z,7.23
2023-04-06T04:11:24.836Z,7.25
2023-04-06T04:13:59.155Z,7.18
2023-04-06T04:16:27.738Z,7.28
2023-04-06T04:18:59.041Z,7.29
2023-04-06T04:21:27.656Z,7.27
2023-04-06T04:23:56.174Z,7.26
2023-04-06T04:26:24.613Z,7.20
2023-04-06T04:28:53.081Z,7.20
2023-04-06T04:31:23.351Z,7.12
2023-04-06T04:33:57.998Z,7.18
2023-04-06T04:36:31.181Z,7.13
2023-04-06T04:39:03.352Z,7.12
2023-04-06T04:41:36.377Z,7.12
2023-04-06T04:44:07.076Z,7.16
2023-04-06T04:46:35.416Z,7.10
2023-04-06T04:49:05.494Z,7.19
2023-04-06T04:51:34.872Z,7.17
2023-04-06T04:54:26.030Z,7.17
2023-04-06T04:56:54.901Z,7.19
2023-04-06T04:59:31.532Z,7.17
2023-04-06T05:02:10.624Z,7.20
2023-04-06T05:04:49.811Z,7.17
2023-04-06T05:07:23.146Z,7.15
2023-04-06T05:09:52.746Z,7.17
2023-04-06T05:12:22.864Z,7.23
2023-04-06T05:15:01.813Z,7.13
2023-04-06T05:17:30.441Z,7.12
2023-04-06T05:20:00.481Z,7.26
2023-04-06T05:22:31.555Z,7.30
2023-04-06T05:25:10.787Z,7.33
2023-04-06T05:27:41.542Z,7.40
2023-04-06T05:30:21.525Z,7.38
2023-04-06T05:32:51.011Z,7.45
2023-04-06T05:35:21.355Z,7.54
2023-04-06T05:37:53.350Z,7.52
2023-04-06T05:40:25.809Z,7.55
2023-04-06T05:42:54.576Z,7.53
2023-04-06T05:45:23.054Z,7.58
2023-04-06T05:47:56.288Z,7.57
2023-04-06T05:50:29.504Z,7.49
2023-04-06T05:52:58.923Z,7.54
2023-04-06T05:55:32.433Z,7.54
2023-04-06T05:58:13.095Z,7.41
2023-04-06T06:00:41.459Z,7.54
2023-04-06T06:03:11.095Z,7.55
2023-04-06T06:05:43.680Z,7.45
2023-04-06T06:08:17.306Z,7.40
2023-04-06T06:10:46.433Z,7.43
2023-04-06T06:13:15.774Z,7.42
2023-04-06T06:15:44.713Z,7.40
2023-04-06T06:18:13.110Z,7.42
2023-04-06T06:20:43.636Z,7.44
2023-04-06T06:23:12.447Z,7.47
2023-04-06T06:25:41.496Z,7.42
2023-04-06T06:28:10.441Z,7.28
2023-04-06T06:30:38.892Z,7.30
2023-04-06T06:33:07.914Z,7.23
2023-04-06T06:35:36.780Z,7.12
2023-04-06T06:38:08.001Z,7.04
2023-04-06T06:40:36.698Z,7.09
2023-04-06T06:43:05.825Z,7.18
2023-04-06T06:45:38.497Z,7.12
2023-04-06T06:48:07.318Z,6.99
2023-04-06T06:50:36.070Z,7.05
2023-04-06T06:53:04.461Z,7.05
2023-04-06T06:55:34.206Z,7.07
2023-04-06T06:58:02.852Z,7.05
2023-04-06T07:00:31.215Z,6.95
2023-04-06T07:03:01.164Z,6.99
2023-04-06T07:05:29.733Z,7.17
2023-04-06T07:08:00.508Z,7.10
2023-04-06T07:10:28.875Z,7.14
2023-04-06T07:12:58.964Z,7.11
2023-04-06T07:15:27.843Z,7.14
2023-04-06T07:17:56.795Z,7.24
2023-04-06T07:20:25.752Z,7.33
2023-04-06T07:22:54.282Z,7.24
2023-04-06T07:25:25.240Z,7.31
2023-04-06T07:27:54.298Z,7.56
2023-04-06T07:30:26.130Z,7.73
2023-04-06T07:32:56.461Z,7.69
2023-04-06T07:35:25.655Z,7.68
2023-04-06T07:37:54.812Z,7.81
2023-04-06T07:40:23.843Z,7.86
2023-04-06T07:42:54.250Z,7.81
2023-04-06T07:45:24.971Z,7.72
2023-04-06T07:47:53.503Z,7.75
2023-04-06T07:50:22.096Z,7.53
2023-04-06T07:52:50.443Z,7.52
2023-04-06T07:55:18.869Z,7.71
2023-04-06T07:57:47.156Z,7.55
2023-04-06T08:00:16.678Z,7.67
2023-04-06T08:02:46.476Z,7.79
2023-04-06T08:05:14.899Z,7.59
2023-04-06T08:07:43.687Z,7.60
2023-04-06T08:10:12.528Z,7.63
2023-04-06T08:12:40.905Z,7.74
2023-04-06T08:15:09.847Z,7.60
2023-04-06T08:17:38.221Z,7.63
2023-04-06T08:20:08.945Z,7.48
2023-04-06T08:22:37.416Z,7.55
2023-04-06T08:25:06.527Z,7.48
2023-04-06T08:27:34.941Z,7.58
2023-04-06T08:30:03.411Z,7.57
2023-04-06T08:32:31.820Z,7.61
2023-04-06T08:35:00.230Z,7.83
2023-04-06T08:37:30.177Z,7.75
2023-04-06T08:39:59.654Z,7.69
2023-04-06T08:42:30.122Z,7.73
2023-04-06T08:44:58.511Z,7.85
2023-04-06T08:47:26.908Z,7.84
2023-04-06T08:49:56.750Z,7.88
2023-04-06T08:52:26.246Z,7.91
2023-04-06T08:54:56.040Z,8.00
2023-04-06T08:57:24.871Z,7.86
2023-04-06T08:59:53.693Z,7.85
2023-04-06T09:02:23.459Z,7.90
2023-04-06T09:04:55.302Z,7.93
2023-04-06T09:07:24.957Z,7.84
2023-04-06T09:09:53.336Z,7.91
2023-04-06T09:12:28.601Z,7.71
2023-04-06T09:14:57.858Z,7.74
2023-04-06T09:17:29.538Z,7.73
2023-04-06T09:19:58.628Z,7.69
2023-04-06T09:22:29.298Z,7.79
2023-04-06T09:24:57.613Z,7.64
2023-04-06T09:27:37.487Z,7.72
2023-04-06T09:30:07.809Z,7.84
2023-04-06T09:32:47.949Z,7.83
2023-04-06T09:35:16.957Z,7.83
2023-04-06T09:37:45.632Z,7.82
2023-04-06T09:40:15.445Z,7.85
2023-04-06T09:42:47.409Z,8.00
2023-04-06T09:45:16.383Z,8.03
2023-04-06T09:47:46.703Z,7.89
2023-04-06T09:50:16.965Z,8.27
2023-04-06T09:52:49.747Z,8.19
2023-04-06T09:55:26.151Z,8.13
2023-04-06T09:58:03.483Z,8.31
2023-04-06T10:00:37.003Z,8.36
2023-04-06T10:03:17.049Z,8.37
2023-04-06T10:05:48.875Z,8.32
2023-04-06T10:08:18.578Z,8.22
2023-04-06T10:10:47.428Z,8.18
2023-04-06T10:13:17.914Z,8.36
2023-04-06T10:15:46.886Z,8.45
2023-04-06T10:18:16.640Z,8.16
2023-04-06T10:20:51.924Z,8.46
2023-04-06T10:23:24.972Z,8.17
2023-04-06T10:25:57.129Z,8.26
2023-04-06T10:28:28.290Z,8.21
2023-04-06T10:31:00.729Z,8.11
2023-04-06T10:33:29.902Z,8.06
2023-04-06T10:35:58.475Z,8.15
2023-04-06T10:38:39.622Z,8.00
2023-04-06T10:41:11.892Z,8.08
2023-04-06T10:43:43.362Z,8.01
2023-04-06T10:46:12.924Z,8.12
2023-04-06T10:48:42.333Z,8.12
2023-04-06T10:51:12.339Z,8.32
2023-04-06T10:53:42.179Z,8.01
2023-04-06T10:56:13.444Z,8.22
2023-04-06T10:58:48.637Z,8.21
2023-04-06T11:01:18.619Z,8.18
2023-04-06T11:03:47.903Z,8.32
2023-04-06T11:06:23.580Z,8.27
2023-04-06T11:08:52.903Z,8.28
2023-04-06T11:11:22.693Z,8.27
2023-04-06T11:13:53.888Z,8.14
2023-04-06T11:16:23.956Z,8.21
2023-04-06T11:18:54.495Z,8.49
2023-04-06T11:21:34.234Z,8.20
2023-04-06T11:24:12.962Z,8.22
2023-04-06T11:26:42.858Z,8.26
2023-04-06T11:29:13.285Z,8.29
2023-04-06T11:31:42.937Z,8.52
2023-04-06T11:34:15.179Z,8.53
2023-04-06T11:36:44.826Z,8.59
2023-04-06T11:39:13.719Z,8.45
2023-04-06T11:41:42.183Z,8.41
2023-04-06T11:44:11.951Z,8.37
2023-04-06T11:46:40.725Z,8.43
2023-04-06T11:49:09.064Z,8.61
2023-04-06T11:51:38.791Z,8.55
2023-04-06T11:54:07.335Z,8.60
2023-04-06T11:56:35.629Z,8.59
2023-04-06T11:59:03.984Z,8.52
2023-04-06T12:01:38.850Z,8.45
2023-04-06T12:04:07.603Z,8.34
2023-04-06T12:06:36.229Z,8.57
2023-04-06T12:09:04.701Z,8.91
2023-04-06T12:11:33.162Z,8.72
2023-04-06T12:14:02.708Z,8.85
2023-04-06T12:16:31.115Z,9.06
2023-04-06T12:19:01.104Z,9.18
2023-04-06T12:21:31.946Z,9.03
2023-04-06T12:24:00.722Z,8.91
2023-04-06T12:26:30.746Z,8.95
2023-04-06T12:29:03.961Z,8.82
2023-04-06T12:31:32.268Z,8.81
2023-04-06T12:34:03.190Z,8.89
2023-04-06T12:36:32.213Z,9.11
2023-04-06T12:39:01.414Z,8.93
2023-04-06T12:41:30.748Z,9.02
2023-04-06T12:44:00.540Z,9.06
2023-04-06T12:46:30.939Z,8.86
2023-04-06T12:49:00.169Z,9.01
2023-04-06T12:51:32.131Z,8.89
2023-04-06T12:54:00.462Z,8.85
2023-04-06T12:56:28.834Z,8.82
2023-04-06T12:58:57.434Z,8.88
2023-04-06T13:01:26.483Z,8.81
2023-04-06T13:03:54.959Z,8.82
2023-04-06T13:06:23.299Z,8.79
2023-04-06T13:08:52.992Z,8.76
2023-04-06T13:11:25.439Z,8.68
2023-04-06T13:13:54.767Z,8.58
2023-04-06T13:16:23.280Z,8.67
2023-04-06T13:18:52.122Z,8.70
2023-04-06T13:21:21.789Z,8.79
2023-04-06T13:23:50.236Z,8.97
2023-04-06T13:26:19.969Z,8.96
2023-04-06T13:28:48.324Z,8.95
2023-04-06T13:31:16.859Z,9.18
2023-04-06T13:33:45.410Z,9.11
2023-04-06T13:36:16.602Z,8.81
2023-04-06T13:38:46.283Z,8.89
2023-04-06T13:41:23.050Z,8.88
2023-04-06T13:43:51.985Z,8.94
2023-04-06T13:46:21.057Z,8.97
2023-04-06T13:48:49.497Z,9.11
2023-04-06T13:51:17.813Z,9.25
2023-04-06T13:53:46.451Z,9.09
2023-04-06T13:56:14.753Z,8.91
2023-04-06T13:58:44.562Z,9.09
2023-04-06T14:01:13.244Z,9.03
2023-04-06T14:03:43.275Z,9.09
2023-04-06T14:06:20.770Z,9.08
2023-04-06T14:08:58.895Z,9.14
2023-04-06T14:11:27.397Z,9.15
2023-04-06T14:13:58.594Z,9.10
2023-04-06T14:16:27.644Z,9.27
2023-04-06T14:18:56.102Z,9.30
2023-04-06T14:21:24.504Z,9.24
2023-04-06T14:23:53.573Z,9.27
2023-04-06T14:26:21.849Z,9.25
2023-04-06T14:28:50.191Z,9.27
2023-04-06T14:31:19.868Z,9.35
2023-04-06T14:33:48.198Z,9.41
2023-04-06T14:36:16.519Z,9.44
2023-04-06T14:38:45.046Z,9.44
2023-04-06T14:41:18.175Z,9.59
2023-04-06T14:43:46.830Z,9.48
2023-04-06T14:46:16.798Z,9.64
2023-04-06T14:48:47.215Z,9.79
2023-04-06T14:51:15.743Z,9.80
2023-04-06T14:53:44.493Z,9.53
2023-04-06T14:56:12.949Z,9.65
2023-04-06T14:58:41.288Z,9.67
2023-04-06T15:01:09.626Z,9.71
2023-04-06T15:03:38.203Z,9.66
2023-04-06T15:06:14.109Z,9.69
2023-04-06T15:08:42.521Z,9.61
2023-04-06T15:11:11.559Z,9.60
2023-04-06T15:13:39.999Z,9.61
2023-04-06T15:16:09.077Z,9.65
2023-04-06T15:18:37.503Z,9.78
2023-04-06T15:21:07.228Z,9.79
2023-04-06T15:23:36.273Z,9.88
2023-04-06T15:26:04.956Z,9.97
2023-04-06T15:28:33.224Z,9.93
2023-04-06T15:31:06.968Z,9.93
2023-04-06T15:33:35.462Z,9.98
2023-04-06T15:36:08.730Z,9.96
2023-04-06T15:38:37.361Z,10.04
2023-04-06T15:41:05.590Z,10.08
2023-04-06T15:43:33.814Z,10.06
2023-04-06T15:46:03.318Z,10.04
2023-04-06T15:48:33.053Z,10.01
2023-04-06T15:51:01.570Z,10.01
2023-04-06T15:53:31.274Z,9.99
2023-04-06T15:56:01.379Z,9.97
2023-04-06T15:58:29.882Z,10.03
2023-04-06T16:00:58.857Z,10.10
2023-04-06T16:03:27.450Z,10.15
2023-04-06T16:06:08.207Z,10.24
2023-04-06T16:08:42.266Z,10.27
2023-04-06T16:11:10.926Z,10.29
2023-04-06T16:13:39.585Z,10.27
2023-04-06T16:16:08.933Z,10.21
2023-04-06T16:18:37.245Z,10.25
2023-04-06T16:21:05.575Z,10.27
2023-04-06T16:23:37.294Z,10.33
2023-04-06T16:26:14.017Z,10.36
2023-04-06T16:28:42.624Z,10.38
2023-04-06T16:31:19.053Z,10.48
2023-04-06T16:33:47.484Z,10.55
2023-04-06T16:36:15.995Z,10.55
2023-04-06T16:38:44.374Z,10.66
2023-04-06T16:41:15.094Z,10.65
2023-04-06T16:43:43.350Z,10.58
2023-04-06T16:46:11.654Z,10.57
2023-04-06T16:48:40.148Z,10.55
2023-04-06T16:51:08.859Z,10.51
2023-04-06T16:53:38.692Z,10.49
2023-04-06T16:58:37.876Z,10.44
2023-04-06T17:01:06.658Z,10.46
2023-04-06T17:03:35.733Z,10.42
2023-04-06T17:06:04.033Z,10.41
2023-04-06T17:08:32.252Z,10.40
2023-04-06T17:11:04.093Z,10.37
2023-04-06T17:13:33.259Z,10.35
2023-04-06T17:16:03.152Z,10.31
2023-04-06T17:18:31.410Z,10.27
2023-04-06T17:21:00.234Z,10.27
2023-04-06T17:23:28.511Z,10.27
2023-04-06T17:25:57.853Z,10.27
2023-04-06T17:28:26.213Z,10.27
2023-04-06T17:30:54.504Z,10.22
2023-04-06T17:33:24.591Z,10.21
2023-04-06T17:35:53.336Z,10.20
2023-04-06T17:38:23.167Z,10.23
2023-04-06T17:40:51.456Z,10.20
2023-04-06T17:43:19.645Z,10.13
2023-04-06T17:45:50.006Z,10.10
2023-04-06T17:48:18.393Z,10.08
2023-04-06T17:50:48.003Z,10.04
2023-04-06T17:53:18.829Z,10.04
2023-04-06T17:55:47.302Z,10.03
2023-04-06T17:58:15.683Z,9.99
2023-04-06T18:00:43.930Z,9.99
2023-04-06T18:03:12.227Z,10.00
2023-04-06T18:05:40.722Z,9.96
2023-04-06T18:08:10.774Z,9.98
2023-04-06T18:10:40.052Z,9.98
2023-04-06T18:13:08.418Z,10.00
2023-04-06T18:15:38.322Z,9.94
2023-04-06T18:18:07.502Z,9.93
2023-04-06T18:20:41.174Z,9.94
2023-04-06T18:23:10.910Z,9.92
2023-04-06T18:25:39.897Z,9.97
2023-04-06T18:28:08.482Z,10.01
2023-04-06T18:30:37.042Z,9.92
2023-04-06T18:33:06.564Z,9.97
2023-04-06T18:35:34.844Z,9.94
2023-04-06T18:38:03.095Z,9.97
2023-04-06T18:40:34.369Z,9.94
2023-04-06T18:43:03.587Z,9.93
2023-04-06T18:45:33.599Z,9.90
2023-04-06T18:48:02.141Z,9.86
2023-04-06T18:50:30.435Z,9.86
2023-04-06T18:52:58.726Z,9.85
2023-04-06T18:55:27.110Z,9.84
2023-04-06T18:57:56.712Z,9.83
2023-04-06T19:00:25.149Z,9.85
2023-04-06T19:02:53.745Z,9.79
2023-04-06T19:05:22.814Z,9.77
2023-04-06T19:07:52.725Z,9.76
2023-04-06T19:10:24.030Z,9.76
2023-04-06T19:12:52.321Z,9.74
2023-04-06T19:15:22.018Z,9.76
2023-04-06T19:17:50.351Z,9.78
2023-04-06T19:20:18.754Z,9.74
2023-04-06T19:22:47.027Z,9.71
2023-04-06T19:25:15.359Z,9.71
2023-04-06T19:27:43.596Z,9.74
2023-04-06T19:30:12.858Z,9.69
2023-04-06T19:32:43.281Z,9.65
2023-04-06T19:35:11.563Z,9.68
2023-04-06T19:37:40.442Z,9.64
2023-04-06T19:40:10.810Z,9.66
2023-04-06T19:42:39.682Z,9.65
2023-04-06T19:45:09.412Z,9.65
2023-04-06T19:47:37.849Z,9.68
2023-04-06T19:50:10.370Z,9.60
2023-04-06T19:52:38.694Z,9.57
2023-04-06T19:55:07.905Z,9.59
2023-04-06T19:57:36.193Z,9.55
2023-04-06T20:00:05.078Z,9.57
2023-04-06T20:02:38.113Z,9.50
2023-04-06T20:05:09.949Z,9.49
2023-04-06T20:07:40.103Z,9.48
2023-04-06T20:10:10.242Z,9.49
2023-04-06T20:12:39.272Z,9.45
2023-04-06T20:15:08.270Z,9.46
2023-04-06T20:17:36.679Z,9.46
2023-04-06T20:20:05.899Z,9.41
2023-04-06T20:22:36.293Z,9.38
2023-04-06T20:25:04.851Z,9.39
2023-04-06T20:27:33.087Z,9.36
2023-04-06T20:30:01.517Z,9.38
2023-04-06T20:32:30.990Z,9.37
2023-04-06T20:34:59.253Z,9.38
2023-04-06T20:37:27.480Z,9.37
2023-04-06T20:39:57.279Z,9.35
2023-04-06T20:42:25.652Z,9.32
2023-04-06T20:44:53.963Z,9.33
2023-04-06T20:47:22.449Z,9.26
2023-04-06T20:49:50.764Z,9.27
2023-04-06T20:52:19.089Z,9.32
2023-04-06T20:54:47.658Z,9.30
2023-04-06T20:57:17.636Z,9.30
2023-04-06T20:59:46.205Z,9.36
2023-04-06T21:02:14.741Z,9.35
2023-04-06T21:04:44.071Z,9.33
2023-04-06T21:07:12.741Z,9.34
2023-04-06T21:09:42.009Z,9.32
2023-04-06T21:12:10.284Z,9.36
2023-04-06T21:14:39.930Z,9.36
2023-04-06T21:17:08.508Z,9.31
2023-04-06T21:19:36.839Z,9.34
2023-04-06T21:22:05.215Z,9.31
2023-04-06T21:24:33.769Z,9.35
2023-04-06T21:27:02.048Z,9.29
2023-04-06T21:29:30.381Z,9.30
2023-04-06T21:32:00.026Z,9.31
2023-04-06T21:34:28.604Z,9.31
2023-04-06T21:36:56.909Z,9.30
2023-04-06T21:39:25.403Z,9.29
2023-04-06T21:41:53.711Z,9.37
2023-04-06T21:44:21.984Z,9.32
2023-04-06T21:46:50.279Z,9.30
2023-04-06T21:49:20.123Z,9.21
2023-04-06T21:51:48.325Z,9.18
2023-04-06T21:54:16.908Z,9.20
2023-04-06T21:56:45.723Z,9.05
2023-04-06T21:59:15.785Z,9.04
2023-04-06T22:01:44.064Z,9.01
2023-04-06T22:04:12.490Z,8.95
2023-04-06T22:06:43.028Z,8.88
2023-04-06T22:09:11.244Z,8.81
2023-04-06T22:11:40.197Z,8.72
2023-04-06T22:14:08.513Z,8.75
2023-04-06T22:16:36.906Z,8.64
2023-04-06T22:19:05.156Z,8.60
2023-04-06T22:21:33.496Z,8.56
2023-04-06T22:24:03.172Z,8.56
2023-04-06T22:26:31.789Z,8.62
2023-04-06T22:29:00.020Z,8.48
2023-04-06T22:31:28.285Z,8.56
2023-04-06T22:33:56.595Z,8.48
2023-04-06T22:36:25.025Z,8.49
2023-04-06T22:38:53.306Z,8.50
2023-04-06T22:41:22.951Z,8.45
2023-04-06T22:43:51.247Z,8.46
2023-04-06T22:46:19.487Z,8.51
2023-04-06T22:48:47.719Z,8.42
2023-04-06T22:51:16.209Z,8.36
2023-04-06T22:53:44.494Z,8.41
2023-04-06T22:56:12.791Z,8.46
2023-04-06T22:58:42.385Z,8.50
2023-04-06T23:01:10.642Z,8.53
2023-04-06T23:03:39.058Z,8.51
2023-04-06T23:06:07.731Z,8.50
2023-04-06T23:08:36.077Z,8.50
2023-04-06T23:11:04.291Z,8.43
2023-04-06T23:13:32.589Z,8.46
2023-04-06T23:16:02.182Z,8.49
2023-04-06T23:18:30.365Z,8.57
2023-04-06T23:20:58.644Z,8.43
2023-04-06T23:23:27.101Z,8.45
2023-04-06T23:25:55.407Z,8.45
2023-04-06T23:28:23.683Z,8.51
2023-04-06T23:30:51.940Z,8.43
2023-04-06T23:33:21.768Z,8.49
2023-04-06T23:35:50.836Z,8.42
2023-04-06T23:38:19.126Z,8.38
2023-04-06T23:40:47.408Z,8.35
2023-04-06T23:43:15.708Z,8.32
2023-04-06T23:45:44.104Z,8.39
2023-04-06T23:48:12.414Z,8.44
2023-04-06T23:50:42.076Z,8.36
2023-04-06T23:53:10.541Z,8.41
2023-04-06T23:55:38.908Z,8.37
2023-04-06T23:58:07.174Z,8.31
